createdAt,value
2022-10-18T04:02:07.770Z,19.59
2022-10-18T04:06:10.397Z,19.48
2022-10-18T04:10:12.994Z,19.49
2022-10-18T04:14:15.773Z,19.39
2022-10-18T04:18:19.700Z,19.46
2022-10-18T04:22:22.338Z,19.17
2022-10-18T04:26:25.026Z,19.14
2022-10-18T04:30:27.651Z,19.16
2022-10-18T04:34:31.661Z,19.07
2022-10-18T04:38:34.426Z,19.18
2022-10-18T04:42:37.022Z,19.20
2022-10-18T04:46:39.672Z,19.31
2022-10-18T04:50:43.659Z,19.29
2022-10-18T04:54:50.016Z,19.20
2022-10-18T04:58:52.603Z,19.18
2022-10-18T05:02:57.756Z,19.23
2022-10-18T05:07:02.773Z,19.06
2022-10-18T05:11:05.635Z,19.04
2022-10-18T05:15:08.967Z,19.16
2022-10-18T05:19:11.553Z,19.19
2022-10-18T05:23:15.521Z,19.14
2022-10-18T05:27:18.141Z,19.14
2022-10-18T05:31:21.267Z,19.09
2022-10-18T05:35:23.889Z,19.12
2022-10-18T05:39:27.891Z,18.93
2022-10-18T05:43:30.675Z,18.81
2022-10-18T05:47:33.267Z,18.78
2022-10-18T05:51:35.853Z,18.76
2022-10-18T05:55:39.877Z,18.77
2022-10-18T05:59:42.497Z,18.91
2022-10-18T06:03:48.192Z,18.88
2022-10-18T06:07:50.767Z,18.73
2022-10-18T06:11:55.407Z,18.81
2022-10-18T06:15:58.393Z,18.81
2022-10-18T06:20:00.975Z,18.73
2022-10-18T06:24:03.635Z,18.71
2022-10-18T06:28:10.141Z,18.72
2022-10-18T06:32:15.013Z,18.67
2022-10-18T06:36:19.567Z,18.80
2022-10-18T06:40:22.202Z,18.90
2022-10-18T06:44:26.278Z,19.03
2022-10-18T06:48:28.889Z,18.96
2022-10-18T06:52:31.876Z,18.77
2022-10-18T06:56:35.295Z,18.67
2022-10-18T07:00:39.295Z,18.72
2022-10-18T07:04:43.173Z,18.63
2022-10-18T07:08:46.385Z,18.48
2022-10-18T07:12:59.182Z,18.53
2022-10-18T07:17:11.880Z,18.51
2022-10-18T07:21:16.518Z,18.62
2022-10-18T07:25:19.247Z,18.64
2022-10-18T07:29:21.882Z,18.70
2022-10-18T07:33:25.893Z,18.83
2022-10-18T07:37:30.147Z,18.69
2022-10-18T07:41:33.897Z,18.73
2022-10-18T07:49:41.581Z,19.05
2022-10-18T07:53:44.205Z,18.89
2022-10-18T07:57:46.777Z,19.04
2022-10-18T08:01:49.411Z,19.11
2022-10-18T08:05:54.626Z,19.46
2022-10-18T08:09:57.241Z,19.78
2022-10-18T08:13:59.856Z,19.89
2022-10-18T08:18:02.455Z,20.13
2022-10-18T08:22:06.421Z,20.36
2022-10-18T08:26:11.786Z,20.50
2022-10-18T08:30:14.581Z,20.49
2022-10-18T08:34:19.700Z,20.47
2022-10-18T08:38:24.366Z,20.47
2022-10-18T08:42:41.856Z,20.67
2022-10-18T08:46:47.147Z,20.47
2022-10-18T08:50:51.908Z,20.32
2022-10-18T08:55:02.032Z,20.15
2022-10-18T08:59:05.020Z,19.98
2022-10-18T09:03:30.727Z,19.96
2022-10-18T09:07:51.499Z,20.03
2022-10-18T09:12:09.830Z,20.27
2022-10-18T09:16:17.455Z,20.72
2022-10-18T09:20:24.387Z,20.74
2022-10-18T09:24:31.832Z,20.91
2022-10-18T09:28:46.157Z,20.98
2022-10-18T09:32:57.663Z,20.95
2022-10-18T09:37:00.904Z,21.02
2022-10-18T09:41:06.556Z,20.98
2022-10-18T09:45:27.784Z,21.07
2022-10-18T09:49:33.663Z,21.25
2022-10-18T09:53:44.309Z,20.99
2022-10-18T09:57:51.319Z,21.12
2022-10-18T10:01:55.589Z,20.77
2022-10-18T10:06:17.639Z,21.10
2022-10-18T10:10:22.698Z,21.31
2022-10-18T10:14:27.364Z,21.00
2022-10-18T10:18:34.296Z,20.95
2022-10-18T10:22:39.391Z,20.80
2022-10-18T10:26:42.105Z,20.60
2022-10-18T10:30:44.805Z,20.71
2022-10-18T10:34:50.892Z,21.34
2022-10-18T10:39:05.386Z,21.74
2022-10-18T10:43:36.386Z,22.04
2022-10-18T10:47:41.136Z,21.27
2022-10-18T10:51:50.570Z,21.07
2022-10-18T10:56:01.381Z,21.30
2022-10-18T11:00:05.343Z,20.75
2022-10-18T11:04:27.637Z,20.60
2022-10-18T11:08:36.774Z,20.66
2022-10-18T11:12:42.565Z,21.10
2022-10-18T11:16:55.429Z,21.48
2022-10-18T11:21:07.764Z,21.71
2022-10-18T11:25:15.590Z,21.95
2022-10-18T11:29:33.355Z,21.61
2022-10-18T11:34:08.112Z,21.23
2022-10-18T11:38:22.382Z,20.78
2022-10-18T11:42:39.064Z,20.46
2022-10-18T11:46:55.594Z,20.42
2022-10-18T11:51:05.926Z,20.72
2022-10-18T11:55:37.283Z,20.73
2022-10-18T11:59:53.247Z,20.82
2022-10-18T12:04:03.678Z,20.64
2022-10-18T12:08:11.402Z,20.54
2022-10-18T12:12:18.970Z,20.23
2022-10-18T12:16:39.242Z,20.35
2022-10-18T12:20:50.261Z,20.85
2022-10-18T12:24:53.162Z,21.15
2022-10-18T12:29:02.951Z,21.47
2022-10-18T12:33:27.180Z,21.46
2022-10-18T12:37:58.666Z,21.13
2022-10-18T12:42:01.432Z,21.41
2022-10-18T12:46:12.184Z,21.86
2022-10-18T12:50:30.455Z,22.00
2022-10-18T12:54:35.449Z,22.05
2022-10-18T12:58:38.051Z,22.16
2022-10-18T13:02:40.670Z,22.48
2022-10-18T13:07:21.157Z,22.59
2022-10-18T13:11:44.582Z,22.25
2022-10-18T13:15:54.766Z,22.38
2022-10-18T13:20:25.689Z,22.78
2022-10-18T13:24:36.763Z,22.83
2022-10-18T13:28:47.040Z,22.74
2022-10-18T13:32:57.618Z,22.84
2022-10-18T13:37:02.251Z,22.67
2022-10-18T13:41:09.035Z,22.46
2022-10-18T13:45:55.508Z,22.12
2022-10-18T13:50:09.995Z,22.64
2022-10-18T13:54:28.743Z,22.43
2022-10-18T13:58:53.814Z,22.78
2022-10-18T14:08:05.674Z,23.89
2022-10-18T14:12:15.520Z,24.19
2022-10-18T14:16:30.829Z,24.29
2022-10-18T14:20:49.399Z,24.34
2022-10-18T14:24:59.995Z,23.79
2022-10-18T14:29:05.865Z,22.65
2022-10-18T14:33:26.453Z,21.36
2022-10-18T14:37:34.358Z,20.95
2022-10-18T14:41:38.600Z,21.17
2022-10-18T14:45:42.467Z,20.83
2022-10-18T14:49:47.855Z,20.55
2022-10-18T14:53:51.648Z,20.86
2022-10-18T14:57:54.437Z,20.92
2022-10-18T15:02:00.851Z,20.75
2022-10-18T15:06:08.415Z,20.91
2022-10-18T15:10:17.396Z,20.82
2022-10-18T15:14:21.382Z,20.88
2022-10-18T15:18:26.046Z,20.57
2022-10-18T15:22:32.674Z,20.17
2022-10-18T15:26:35.733Z,20.15
2022-10-18T15:30:42.855Z,20.19
2022-10-18T15:34:45.931Z,20.09
2022-10-18T15:38:50.203Z,20.02
2022-10-18T15:42:54.900Z,20.05
2022-10-18T15:47:20.133Z,19.73
2022-10-18T15:51:48.827Z,19.38
2022-10-18T15:55:55.454Z,19.14
2022-10-18T16:00:01.884Z,18.95
2022-10-18T16:04:19.491Z,18.72
2022-10-18T16:08:24.431Z,18.62
2022-10-18T16:12:28.359Z,18.44
2022-10-18T16:16:31.107Z,18.28
2022-10-18T16:20:33.712Z,18.04
2022-10-18T16:24:36.282Z,17.81
2022-10-18T16:28:40.845Z,17.89
2022-10-18T16:32:43.451Z,17.72
2022-10-18T16:36:46.169Z,17.57
2022-10-18T16:40:48.770Z,17.41
2022-10-18T16:44:54.873Z,17.31
2022-10-18T16:48:58.173Z,17.11
2022-10-18T16:53:00.616Z,16.85
2022-10-18T16:57:03.213Z,16.58
2022-10-18T17:01:08.987Z,16.45
2022-10-18T17:05:11.839Z,16.14
2022-10-18T17:09:16.018Z,16.15
2022-10-18T17:13:18.634Z,16.02
2022-10-18T17:17:22.591Z,15.93
2022-10-18T17:21:26.329Z,15.74
2022-10-18T17:29:36.477Z,15.40
2022-10-18T17:33:40.399Z,15.39
2022-10-18T17:37:45.411Z,15.05
2022-10-18T17:41:48.764Z,14.72
2022-10-18T17:45:55.491Z,14.57
2022-10-18T17:49:59.955Z,14.55
2022-10-18T17:54:03.148Z,14.55
2022-10-18T17:58:07.086Z,14.49
2022-10-18T18:02:11.655Z,14.61
2022-10-18T18:06:18.178Z,14.64
2022-10-18T18:10:20.976Z,14.45
2022-10-18T18:14:23.779Z,14.35
2022-10-18T18:18:26.378Z,14.26
2022-10-18T18:22:30.607Z,14.19
2022-10-18T18:26:34.559Z,14.12
2022-10-18T18:30:40.735Z,14.08
2022-10-18T18:34:43.387Z,13.84
2022-10-18T18:38:47.548Z,13.79
2022-10-18T18:43:07.164Z,13.73
2022-10-18T18:47:13.461Z,13.67
2022-10-18T18:51:18.348Z,13.47
2022-10-18T18:55:22.417Z,13.29
2022-10-18T18:59:26.204Z,13.25
2022-10-18T19:03:28.811Z,13.07
2022-10-18T19:07:32.379Z,12.77
2022-10-18T19:11:39.598Z,12.89
2022-10-18T19:15:42.260Z,12.79
2022-10-18T19:19:45.517Z,12.83
2022-10-18T19:23:48.223Z,12.80
2022-10-18T19:27:52.343Z,12.76
2022-10-18T19:31:57.334Z,12.73
2022-10-18T19:35:59.932Z,12.57
2022-10-18T19:40:02.850Z,12.47
2022-10-18T19:44:07.566Z,12.43
2022-10-18T19:48:12.427Z,12.12
2022-10-18T19:52:16.181Z,12.16
2022-10-18T19:56:20.893Z,12.23
2022-10-18T20:00:24.830Z,12.26
2022-10-18T20:04:27.447Z,12.05
2022-10-18T20:08:32.940Z,11.98
2022-10-18T20:12:36.445Z,11.80
2022-10-18T20:16:40.388Z,11.78
2022-10-18T20:20:47.236Z,11.67
2022-10-18T20:24:50.855Z,11.68
2022-10-18T20:28:57.523Z,11.65
2022-10-18T20:33:01.634Z,11.60
2022-10-18T20:37:04.240Z,11.51
2022-10-18T20:41:08.343Z,11.46
2022-10-18T20:45:12.361Z,11.34
2022-10-18T20:49:17.409Z,11.20
2022-10-18T20:53:20.266Z,11.06
2022-10-18T20:57:22.862Z,11.04
